Time;durP1;ratioP1;P1;durP2;ratioP2;P2;SDS_P1;SDS_P2;PMS_P1;PMS_P2;Temp;Humidity;BMP_temperature;BMP_pressure;BME280_temperature;BME280_humidity;BME280_pressure;Samples;Min_cycle;Max_cycle;Signal;HPM_P1;HPM_P2
2023/10/30 00:02:23;;;;;;;5.18;3.55;;;12.50;82.00;;;;;;4987852;28;20605;-63
2023/10/30 00:04:50;;;;;;;3.45;2.38;;;12.50;82.10;;;;;;4986461;28;20038;-64
2023/10/30 00:07:15;;;;;;;3.55;2.30;;;12.50;82.40;;;;;;4987230;28;20034;-63
2023/10/30 00:09:41;;;;;;;2.83;2.15;;;12.50;82.90;;;;;;4987101;28;20072;-63
2023/10/30 00:12:06;;;;;;;4.93;2.80;;;12.40;83.10;;;;;;4986080;28;20565;-63
2023/10/30 00:14:33;;;;;;;5.10;3.40;;;12.40;83.40;;;;;;4985888;28;20169;-62
2023/10/30 00:16:59;;;;;;;4.50;3.40;;;12.40;83.50;;;;;;4987295;28;20506;-63
2023/10/30 00:19:24;;;;;;;5.22;4.03;;;12.40;83.40;;;;;;4986696;28;20057;-63
2023/10/30 00:21:50;;;;;;;6.38;4.47;;;12.40;83.40;;;;;;4986897;28;20042;-63
2023/10/30 00:24:15;;;;;;;5.38;3.35;;;12.40;83.30;;;;;;4986292;28;20058;-64
2023/10/30 00:26:42;;;;;;;3.95;3.10;;;12.40;83.40;;;;;;4986567;28;20030;-62
2023/10/30 00:29:08;;;;;;;4.28;3.17;;;12.40;84.00;;;;;;4986670;28;20035;-63
2023/10/30 00:31:34;;;;;;;3.35;3.05;;;12.40;84.40;;;;;;4986483;28;20050;-64
2023/10/30 00:33:59;;;;;;;3.53;2.95;;;12.40;84.80;;;;;;4986695;28;20038;-63
2023/10/30 00:36:25;;;;;;;4.15;3.17;;;12.40;85.00;;;;;;4986059;28;20035;-64
2023/10/30 00:38:50;;;;;;;3.78;3.00;;;12.40;85.10;;;;;;4985996;28;20476;-63
2023/10/30 00:41:16;;;;;;;4.53;3.33;;;12.40;85.20;;;;;;4986896;28;20118;-63
2023/10/30 00:43:42;;;;;;;4.20;3.80;;;12.40;85.20;;;;;;4986493;28;20045;-63
2023/10/30 00:46:07;;;;;;;6.18;4.22;;;12.40;85.40;;;;;;4986086;28;20525;-63
2023/10/30 00:48:33;;;;;;;5.90;4.60;;;12.40;85.90;;;;;;4986838;28;20046;-63
2023/10/30 00:50:59;;;;;;;4.40;4.00;;;12.40;86.50;;;;;;4986304;28;20037;-63
2023/10/30 00:53:24;;;;;;;4.90;4.25;;;12.40;86.60;;;;;;4986790;28;20504;-63
2023/10/30 00:55:50;;;;;;;5.50;3.95;;;12.40;86.60;;;;;;4986032;28;20084;-63
2023/10/30 00:58:17;;;;;;;4.57;3.90;;;12.40;86.50;;;;;;4985866;28;20117;-64
2023/10/30 01:00:43;;;;;;;4.88;4.10;;;12.40;86.40;;;;;;4984657;28;20080;-62
2023/10/30 01:03:08;;;;;;;4.85;3.78;;;12.40;86.20;;;;;;4985839;28;20491;-63
2023/10/30 01:05:34;;;;;;;4.72;4.10;;;12.40;86.30;;;;;;4986495;28;20038;-64
2023/10/30 01:08:00;;;;;;;5.70;3.65;;;12.40;86.50;;;;;;4985875;28;20363;-63
2023/10/30 01:10:26;;;;;;;3.90;3.53;;;12.40;86.40;;;;;;4985548;28;20054;-63
2023/10/30 01:12:52;;;;;;;3.47;3.17;;;12.40;86.40;;;;;;4985630;28;20080;-63
2023/10/30 01:15:18;;;;;;;5.93;3.78;;;12.30;86.20;;;;;;4984900;28;20077;-62
2023/10/30 01:17:43;;;;;;;3.95;3.30;;;12.30;86.00;;;;;;4985884;28;20073;-64
2023/10/30 01:20:09;;;;;;;3.70;3.40;;;12.30;85.90;;;;;;4984542;28;20434;-63
2023/10/30 01:22:35;;;;;;;3.40;3.10;;;12.30;85.70;;;;;;4985339;28;20035;-63
2023/10/30 01:25:01;;;;;;;7.25;3.88;;;12.30;86.40;;;;;;4985685;28;21978;-63
2023/10/30 01:27:26;;;;;;;5.55;3.35;;;12.30;85.40;;;;;;4985909;28;20031;-63
2023/10/30 01:29:53;;;;;;;4.30;3.70;;;12.30;85.30;;;;;;4984839;28;20122;-64
2023/10/30 01:32:18;;;;;;;3.85;3.50;;;12.30;85.20;;;;;;4985830;28;20058;-64
2023/10/30 01:34:44;;;;;;;4.13;3.63;;;12.30;85.30;;;;;;4985302;28;20247;-64
2023/10/30 01:37:10;;;;;;;3.47;3.17;;;12.30;85.10;;;;;;4985887;28;20042;-63
2023/10/30 01:39:39;;;;;;;4.90;3.60;;;12.20;85.00;;;;;;4985751;28;20037;-63
2023/10/30 01:42:05;;;;;;;3.85;3.53;;;12.20;85.10;;;;;;4985461;28;20108;-63
2023/10/30 01:44:30;;;;;;;3.53;3.22;;;12.20;85.20;;;;;;4984721;28;20569;-63
2023/10/30 01:46:56;;;;;;;4.53;3.80;;;12.20;85.20;;;;;;4985874;28;20046;-63
2023/10/30 01:49:22;;;;;;;5.57;3.80;;;12.20;85.00;;;;;;4985782;28;20410;-62
2023/10/30 01:51:47;;;;;;;4.15;3.58;;;12.10;85.20;;;;;;4985160;28;20061;-62
2023/10/30 01:54:14;;;;;;;4.38;3.58;;;12.10;85.20;;;;;;4986134;28;20402;-63
2023/10/30 01:56:40;;;;;;;5.07;3.50;;;12.10;85.00;;;;;;4984842;28;20120;-63
2023/10/30 01:59:07;;;;;;;4.95;3.85;;;12.10;85.00;;;;;;4985795;28;20042;-64
2023/10/30 02:01:37;;;;;;;5.38;3.97;;;12.10;85.20;;;;;;4982526;28;20048;-64
2023/10/30 02:04:03;;;;;;;5.55;3.58;;;12.10;85.40;;;;;;4985826;28;20045;-64
2023/10/30 02:06:28;;;;;;;4.20;3.80;;;12.00;85.40;;;;;;4985435;28;20034;-63
2023/10/30 02:08:54;;;;;;;4.43;3.83;;;12.00;85.70;;;;;;4984923;28;20042;-64
2023/10/30 02:11:19;;;;;;;4.45;4.05;;;12.00;85.60;;;;;;4984752;28;20035;-63
2023/10/30 02:13:54;;;;;;;5.95;3.75;;;12.00;85.70;;;;;;4985051;28;20129;-63
2023/10/30 02:16:20;;;;;;;3.85;3.55;;;12.00;85.80;;;;;;4983964;28;20037;-63
2023/10/30 02:18:45;;;;;;;4.72;3.65;;;11.90;85.30;;;;;;4986024;28;20034;-63
2023/10/30 02:21:12;;;;;;;4.10;3.60;;;11.90;85.30;;;;;;4989388;28;20030;-63
2023/10/30 02:23:37;;;;;;;3.90;3.50;;;11.90;85.30;;;;;;4989094;28;20174;-63
2023/10/30 02:26:03;;;;;;;3.83;3.38;;;11.80;85.00;;;;;;4988820;28;20633;-64
2023/10/30 02:28:28;;;;;;;4.65;3.83;;;11.80;85.00;;;;;;4988685;28;20474;-63
2023/10/30 02:30:54;;;;;;;4.72;3.67;;;11.80;85.10;;;;;;4989019;28;20149;-63
2023/10/30 02:33:20;;;;;;;5.07;3.88;;;11.80;84.90;;;;;;4988779;28;20510;-63
2023/10/30 02:35:46;;;;;;;5.90;3.33;;;11.70;85.00;;;;;;4989461;28;20545;-63
2023/10/30 02:38:12;;;;;;;4.00;3.58;;;11.70;85.20;;;;;;4989511;28;20042;-63
2023/10/30 02:40:37;;;;;;;5.25;3.83;;;11.70;85.20;;;;;;4988462;28;20087;-63
2023/10/30 02:43:03;;;;;;;4.57;3.92;;;11.60;85.30;;;;;;4986961;28;20030;-63
2023/10/30 02:45:29;;;;;;;3.63;3.33;;;11.60;85.40;;;;;;4988011;28;20030;-63
2023/10/30 02:47:54;;;;;;;4.40;4.00;;;11.60;85.50;;;;;;4999940;28;20426;-64
2023/10/30 02:50:20;;;;;;;4.93;4.20;;;11.60;85.30;;;;;;4997061;28;20113;-63
2023/10/30 02:52:45;;;;;;;4.78;4.20;;;11.60;85.30;;;;;;4991474;28;20096;-63
2023/10/30 02:55:11;;;;;;;5.20;4.38;;;11.50;85.50;;;;;;4989542;28;20030;-64
2023/10/30 02:57:36;;;;;;;6.85;4.82;;;11.50;85.60;;;;;;4989648;28;20038;-63
2023/10/30 03:00:03;;;;;;;5.18;4.68;;;11.50;85.50;;;;;;4988936;28;20050;-63
2023/10/30 03:02:28;;;;;;;7.00;4.53;;;11.50;85.70;;;;;;4989486;28;20042;-63
2023/10/30 03:04:54;;;;;;;5.40;4.45;;;11.40;85.70;;;;;;4989478;28;20038;-63
2023/10/30 03:07:19;;;;;;;5.03;4.20;;;11.40;85.80;;;;;;4989816;28;20084;-64
2023/10/30 03:09:45;;;;;;;4.50;3.92;;;11.40;85.70;;;;;;4988896;28;20054;-63
2023/10/30 03:12:11;;;;;;;4.85;3.88;;;11.30;85.60;;;;;;4988999;28;20046;-63
2023/10/30 03:14:36;;;;;;;5.10;4.00;;;11.40;85.60;;;;;;4988500;28;20433;-64
2023/10/30 03:17:02;;;;;;;6.72;4.75;;;11.30;85.40;;;;;;4989191;28;20037;-62
2023/10/30 03:19:28;;;;;;;5.68;4.70;;;11.30;85.10;;;;;;4989234;28;20030;-62
2023/10/30 03:21:53;;;;;;;5.53;4.60;;;11.30;84.90;;;;;;4988945;28;20027;-63
2023/10/30 03:24:19;;;;;;;5.00;4.40;;;11.30;84.90;;;;;;4988929;28;20391;-63
2023/10/30 03:26:45;;;;;;;5.43;4.47;;;11.20;85.00;;;;;;4988599;28;20038;-63
2023/10/30 03:29:11;;;;;;;7.38;4.40;;;11.20;85.20;;;;;;4988704;28;20034;-62
2023/10/30 03:31:36;;;;;;;5.57;4.45;;;11.20;85.90;;;;;;4988895;28;20038;-63
2023/10/30 03:34:02;;;;;;;6.30;4.75;;;11.10;84.80;;;;;;4988286;28;20419;-62
2023/10/30 03:36:29;;;;;;;5.85;4.38;;;11.10;84.50;;;;;;4988273;28;20125;-63
2023/10/30 03:38:54;;;;;;;5.10;4.55;;;11.10;84.60;;;;;;4988534;28;20029;-63
2023/10/30 03:41:20;;;;;;;4.68;4.22;;;11.10;84.80;;;;;;4988817;28;20113;-63
2023/10/30 03:43:45;;;;;;;9.30;4.93;;;11.00;84.70;;;;;;4988314;28;20081;-63
2023/10/30 03:46:11;;;;;;;5.07;4.57;;;11.00;84.80;;;;;;4988515;28;20042;-63
2023/10/30 03:48:37;;;;;;;5.70;4.95;;;11.00;85.00;;;;;;4988115;28;20026;-61
2023/10/30 03:51:03;;;;;;;36.67;5.30;;;10.90;85.20;;;;;;4987912;28;20266;-63
2023/10/30 03:53:29;;;;;;;5.35;4.68;;;10.90;85.30;;;;;;4987579;28;20034;-63
2023/10/30 03:55:55;;;;;;;8.75;4.60;;;10.90;85.50;;;;;;4988440;28;20030;-63
2023/10/30 03:58:21;;;;;;;4.53;4.13;;;10.90;85.70;;;;;;4988089;28;20498;-63
2023/10/30 04:00:46;;;;;;;6.15;4.00;;;10.90;85.80;;;;;;4986723;28;20046;-63
2023/10/30 04:03:12;;;;;;;30.27;4.78;;;10.90;85.80;;;;;;4987840;28;20062;-63
2023/10/30 04:05:38;;;;;;;4.07;3.78;;;10.90;85.80;;;;;;4987157;28;20061;-63
2023/10/30 04:08:04;;;;;;;7.72;4.10;;;10.80;85.70;;;;;;4987445;28;20066;-63
2023/10/30 04:10:31;;;;;;;21.27;4.63;;;10.80;86.70;;;;;;4986385;28;20089;-63
2023/10/30 04:12:56;;;;;;;44.88;4.30;;;10.80;85.90;;;;;;4986899;28;20034;-63
2023/10/30 04:15:22;;;;;;;35.20;4.70;;;10.90;86.20;;;;;;4987650;28;20534;-63
2023/10/30 04:17:49;;;;;;;4.68;4.10;;;10.80;86.40;;;;;;4987726;28;20041;-63
2023/10/30 04:20:15;;;;;;;14.77;4.25;;;10.80;86.60;;;;;;4988232;28;20054;-63
2023/10/30 04:22:40;;;;;;;20.42;4.07;;;10.70;86.80;;;;;;4986524;28;20513;-63
2023/10/30 04:25:08;;;;;;;10.68;4.35;;;10.70;87.10;;;;;;4987463;28;20133;-63
2023/10/30 04:27:34;;;;;;;5.80;4.80;;;10.70;87.30;;;;;;4987928;28;20121;-63
2023/10/30 04:30:00;;;;;;;5.20;4.70;;;10.70;87.50;;;;;;4987163;28;20138;-63
2023/10/30 04:32:26;;;;;;;5.53;5.03;;;10.70;87.80;;;;;;4986872;28;20461;-63
2023/10/30 04:34:52;;;;;;;5.85;4.82;;;10.70;88.10;;;;;;4986964;28;20054;-64
2023/10/30 04:37:19;;;;;;;7.90;5.60;;;10.70;88.30;;;;;;4987244;28;20030;-63
2023/10/30 04:39:45;;;;;;;9.48;5.65;;;10.70;88.50;;;;;;4987509;28;20041;-62
2023/10/30 04:42:11;;;;;;;8.40;5.88;;;10.70;88.80;;;;;;4985245;28;20050;-63
2023/10/30 04:44:36;;;;;;;7.60;6.22;;;10.70;89.10;;;;;;4986176;28;20038;-63
2023/10/30 04:47:02;;;;;;;21.27;7.03;;;10.70;89.30;;;;;;4986871;28;20070;-63
2023/10/30 04:49:27;;;;;;;13.10;7.43;;;10.80;89.70;;;;;;4986762;28;20509;-63
2023/10/30 04:51:53;;;;;;;15.68;7.80;;;10.80;90.00;;;;;;4986254;28;20070;-63
2023/10/30 04:54:19;;;;;;;11.50;7.40;;;10.90;90.20;;;;;;4987011;28;20042;-63
2023/10/30 04:56:44;;;;;;;7.85;7.05;;;10.90;90.30;;;;;;4985585;28;20093;-63
2023/10/30 04:59:10;;;;;;;11.82;7.90;;;11.00;90.30;;;;;;4985787;28;20046;-63
2023/10/30 05:01:36;;;;;;;8.57;7.68;;;11.00;90.40;;;;;;4984509;28;20490;-63
2023/10/30 05:04:02;;;;;;;12.07;7.80;;;11.10;90.40;;;;;;4986378;28;20145;-63
2023/10/30 05:06:28;;;;;;;13.48;8.65;;;11.10;90.40;;;;;;4983656;28;20151;-63
2023/10/30 05:08:53;;;;;;;27.27;8.13;;;11.20;90.40;;;;;;4985496;28;20042;-63
2023/10/30 05:11:19;;;;;;;10.35;8.70;;;11.30;90.40;;;;;;4982624;28;20046;-63
2023/10/30 05:13:44;;;;;;;18.77;8.32;;;11.30;90.40;;;;;;4985450;28;20413;-63
2023/10/30 05:16:10;;;;;;;32.85;9.88;;;11.30;90.50;;;;;;4985710;28;20184;-63
2023/10/30 05:18:35;;;;;;;14.98;8.65;;;11.40;90.50;;;;;;4984735;28;20041;-63
2023/10/30 05:21:01;;;;;;;11.48;9.60;;;11.40;90.50;;;;;;4986047;28;20049;-63
2023/10/30 05:23:27;;;;;;;20.15;9.98;;;11.50;90.50;;;;;;4987042;28;20026;-63
2023/10/30 05:25:53;;;;;;;11.98;9.50;;;11.50;90.50;;;;;;4986735;28;20042;-62
2023/10/30 05:28:18;;;;;;;16.02;9.65;;;11.60;90.50;;;;;;4987027;28;20058;-63
2023/10/30 05:30:44;;;;;;;14.48;9.88;;;11.60;90.50;;;;;;4986148;28;20041;-63
2023/10/30 05:33:09;;;;;;;24.67;9.63;;;11.60;90.50;;;;;;4986345;28;20142;-63
2023/10/30 05:35:35;;;;;;;11.52;9.48;;;11.60;90.50;;;;;;4986607;28;20038;-63
2023/10/30 05:38:04;;;;;;;12.75;9.10;;;11.60;90.50;;;;;;4986670;28;20123;-63
2023/10/30 05:40:29;;;;;;;13.68;9.30;;;11.70;90.60;;;;;;4984700;28;20030;-62
2023/10/30 05:42:55;;;;;;;18.88;10.10;;;11.70;90.50;;;;;;4986602;28;20026;-63
2023/10/30 05:45:20;;;;;;;17.30;10.10;;;11.70;90.50;;;;;;4986512;28;20035;-64
2023/10/30 05:47:47;;;;;;;18.85;10.27;;;11.70;90.40;;;;;;4986539;28;20041;-63
2023/10/30 05:50:13;;;;;;;11.77;9.65;;;11.70;90.40;;;;;;4985976;28;20066;-63
2023/10/30 05:52:38;;;;;;;20.80;9.98;;;11.70;90.40;;;;;;4985538;28;20109;-64
2023/10/30 05:55:04;;;;;;;11.77;9.38;;;11.70;90.40;;;;;;4990418;28;20057;-63
2023/10/30 05:57:31;;;;;;;36.03;11.00;;;11.70;90.40;;;;;;4990523;28;20488;-62
2023/10/30 05:59:56;;;;;;;13.85;9.25;;;11.70;90.40;;;;;;4988791;28;20031;-63
2023/10/30 06:02:22;;;;;;;18.33;9.75;;;11.70;90.40;;;;;;4990271;28;20057;-63
2023/10/30 06:04:48;;;;;;;19.35;10.20;;;11.70;90.40;;;;;;4987967;28;20114;-63
2023/10/30 06:07:13;;;;;;;12.50;9.43;;;11.70;90.40;;;;;;4990182;28;20026;-63
2023/10/30 06:09:39;;;;;;;12.50;10.20;;;11.70;90.40;;;;;;4989826;28;20117;-63
2023/10/30 06:12:05;;;;;;;17.17;10.18;;;11.70;90.50;;;;;;4986272;28;20038;-63
2023/10/30 06:14:30;;;;;;;13.32;9.70;;;11.70;90.50;;;;;;4989169;28;20038;-63
2023/10/30 06:16:58;;;;;;;13.15;10.75;;;11.80;90.50;;;;;;4990131;28;20037;-63
2023/10/30 06:19:28;;;;;;;15.40;10.77;;;11.80;90.50;;;;;;4990052;28;20042;-63
2023/10/30 06:21:53;;;;;;;18.40;10.45;;;11.80;90.50;;;;;;4990003;28;20092;-64
2023/10/30 06:24:19;;;;;;;19.17;11.25;;;11.80;90.50;;;;;;4989884;28;20398;-63
2023/10/30 06:26:45;;;;;;;13.63;10.88;;;11.80;90.40;;;;;;4989486;28;20541;-63
2023/10/30 06:29:10;;;;;;;11.20;9.95;;;11.80;90.40;;;;;;4990018;28;20046;-63
2023/10/30 06:31:36;;;;;;;62.40;12.05;;;11.90;90.40;;;;;;4989920;28;20100;-62
2023/10/30 06:34:02;;;;;;;22.83;10.80;;;11.90;90.40;;;;;;4989590;28;20038;-63
2023/10/30 06:36:27;;;;;;;14.80;9.98;;;11.90;90.40;;;;;;4989479;28;20037;-64
2023/10/30 06:38:55;;;;;;;11.23;10.02;;;11.90;90.40;;;;;;4989662;28;20168;-64
2023/10/30 06:41:20;;;;;;;13.23;9.98;;;11.90;90.40;;;;;;4989835;28;20046;-63
2023/10/30 06:43:46;;;;;;;12.40;10.60;;;11.90;90.30;;;;;;4989520;28;20490;-63
2023/10/30 06:46:11;;;;;;;14.02;10.50;;;11.90;90.30;;;;;;4989585;28;20045;-63
2023/10/30 06:48:37;;;;;;;12.73;10.38;;;11.90;90.30;;;;;;4989521;28;20541;-62
2023/10/30 06:51:03;;;;;;;13.32;11.15;;;11.90;90.40;;;;;;4989735;28;20042;-62
2023/10/30 06:53:29;;;;;;;13.93;10.88;;;11.90;90.30;;;;;;4988861;28;20037;-63
2023/10/30 06:55:54;;;;;;;38.15;11.45;;;11.90;90.40;;;;;;4989512;28;20034;-63
2023/10/30 06:58:23;;;;;;;117.75;12.00;;;12.00;90.40;;;;;;4988660;28;20035;-63
2023/10/30 07:00:49;;;;;;;98.80;11.27;;;12.00;90.40;;;;;;4987097;28;20039;-63
2023/10/30 07:03:15;;;;;;;97.07;10.90;;;12.00;90.40;;;;;;4988890;28;20227;-63
2023/10/30 07:05:42;;;;;;;18.50;9.60;;;11.90;90.40;;;;;;4988694;28;20038;-63
2023/10/30 07:08:08;;;;;;;85.82;11.90;;;11.90;90.40;;;;;;4989114;28;20038;-63
2023/10/30 07:10:33;;;;;;;101.70;11.30;;;11.90;90.40;;;;;;4986090;28;20513;-62
2023/10/30 07:12:59;;;;;;;73.25;9.80;;;11.90;90.50;;;;;;4988946;28;20030;-62
2023/10/30 07:15:26;;;;;;;53.85;9.38;;;11.80;90.50;;;;;;4989321;28;20034;-63
2023/10/30 07:17:55;;;;;;;92.38;9.75;;;11.80;90.50;;;;;;4988726;28;20077;-62
2023/10/30 07:20:21;;;;;;;172.25;10.50;;;11.80;90.50;;;;;;4989396;28;20088;-62
2023/10/30 07:22:47;;;;;;;70.18;8.82;;;11.80;90.50;;;;;;4988491;28;20030;-63
2023/10/30 07:25:12;;;;;;;92.80;8.65;;;11.80;90.40;;;;;;4988278;28;20290;-63
2023/10/30 07:27:38;;;;;;;49.95;8.27;;;11.80;90.50;;;;;;4989111;28;20102;-63
2023/10/30 07:30:04;;;;;;;100.00;8.90;;;11.80;90.40;;;;;;4988089;28;20073;-63
2023/10/30 07:32:30;;;;;;;24.60;8.15;;;11.70;90.50;;;;;;4987925;28;20042;-62
2023/10/30 07:34:56;;;;;;;22.50;8.45;;;11.70;90.50;;;;;;4988525;28;20034;-62
2023/10/30 07:37:22;;;;;;;70.65;8.90;;;11.70;90.50;;;;;;4988951;28;20084;-63
2023/10/30 07:39:47;;;;;;;21.33;7.32;;;11.70;90.60;;;;;;4988954;28;20064;-63
2023/10/30 07:42:13;;;;;;;8.98;7.30;;;11.70;90.60;;;;;;4988385;28;20497;-63
2023/10/30 07:44:39;;;;;;;20.70;7.10;;;11.70;90.60;;;;;;4987680;28;20034;-63
2023/10/30 07:47:04;;;;;;;119.35;9.75;;;11.70;90.60;;;;;;4988293;28;20105;-63
2023/10/30 07:49:30;;;;;;;9.27;7.22;;;11.70;90.50;;;;;;4988507;28;20057;-63
2023/10/30 07:51:56;;;;;;;38.30;7.53;;;11.60;90.40;;;;;;4987594;28;20038;-63
2023/10/30 07:54:22;;;;;;;67.07;8.07;;;11.60;90.60;;;;;;4988254;28;20042;-62
2023/10/30 07:56:48;;;;;;;56.13;7.18;;;11.60;90.60;;;;;;4987531;28;20077;-64
2023/10/30 07:59:14;;;;;;;15.75;6.82;;;11.60;90.60;;;;;;4987704;28;20058;-64
2023/10/30 08:01:40;;;;;;;32.75;8.10;;;11.60;90.70;;;;;;4987159;28;20034;-63
2023/10/30 08:04:06;;;;;;;10.57;7.75;;;11.50;90.80;;;;;;4987685;28;20532;-64
2023/10/30 08:06:32;;;;;;;11.40;7.53;;;11.50;90.80;;;;;;4987785;28;20513;-63
2023/10/30 08:08:58;;;;;;;12.25;7.57;;;11.50;91.00;;;;;;4987689;28;20501;-62
2023/10/30 08:11:24;;;;;;;19.77;7.57;;;11.60;91.00;;;;;;4984682;28;20085;-63
2023/10/30 08:13:49;;;;;;;8.52;7.65;;;11.60;91.20;;;;;;4987680;28;20121;-62
2023/10/30 08:16:15;;;;;;;11.27;8.32;;;11.50;91.10;;;;;;4986991;28;20490;-64
2023/10/30 08:18:41;;;;;;;9.48;8.40;;;11.60;91.20;;;;;;4987510;28;20040;-63
2023/10/30 08:21:09;;;;;;;18.25;8.80;;;11.60;91.20;;;;;;4987538;28;20042;-63
2023/10/30 08:23:37;;;;;;;12.90;8.57;;;11.60;91.20;;;;;;4987693;28;20389;-63
2023/10/30 08:26:06;;;;;;;9.45;8.52;;;11.60;91.30;;;;;;4987486;28;20053;-63
2023/10/30 08:28:31;;;;;;;10.80;8.73;;;11.60;91.40;;;;;;4987029;28;20053;-63
2023/10/30 08:30:57;;;;;;;9.52;8.52;;;11.60;91.50;;;;;;4987618;28;20065;-63
2023/10/30 08:33:22;;;;;;;9.98;8.90;;;11.70;91.60;;;;;;4987752;28;20034;-63
2023/10/30 08:35:48;;;;;;;9.95;8.93;;;11.90;91.60;;;;;;4987677;28;20030;-63
2023/10/30 08:38:14;;;;;;;10.35;9.05;;;11.80;91.50;;;;;;4987366;28;20536;-63
2023/10/30 08:40:40;;;;;;;10.98;8.75;;;11.90;91.50;;;;;;4986952;28;20026;-63
2023/10/30 08:43:05;;;;;;;9.93;8.93;;;11.90;91.50;;;;;;4986824;28;20297;-62
2023/10/30 08:45:31;;;;;;;9.63;8.57;;;12.00;91.50;;;;;;4987702;28;20466;-64
2023/10/30 08:47:56;;;;;;;10.27;8.80;;;12.10;91.50;;;;;;4987300;28;20034;-63
2023/10/30 08:50:22;;;;;;;10.65;8.48;;;12.10;91.40;;;;;;4987484;28;20046;-63
2023/10/30 08:52:48;;;;;;;11.48;8.05;;;12.20;91.40;;;;;;4986739;28;20058;-63
2023/10/30 08:55:14;;;;;;;8.55;7.65;;;12.30;91.30;;;;;;4986962;28;20522;-63
2023/10/30 08:57:39;;;;;;;8.57;7.70;;;12.40;91.20;;;;;;4986689;28;20034;-63
2023/10/30 09:00:07;;;;;;;9.25;8.20;;;12.40;91.20;;;;;;4986185;28;20041;-63
2023/10/30 09:02:33;;;;;;;8.35;7.25;;;12.40;91.20;;;;;;4983906;28;20035;-63
2023/10/30 09:04:59;;;;;;;9.10;7.20;;;12.50;91.20;;;;;;4987956;28;20524;-63
2023/10/30 09:07:24;;;;;;;8.65;7.72;;;12.60;91.20;;;;;;4987640;28;20030;-63
2023/10/30 09:09:50;;;;;;;8.27;7.47;;;12.60;91.20;;;;;;4987959;28;20113;-63
2023/10/30 09:12:17;;;;;;;8.57;7.63;;;12.70;91.20;;;;;;4987277;28;20121;-62
2023/10/30 09:14:43;;;;;;;8.65;7.85;;;12.80;91.20;;;;;;4987504;28;20050;-63
2023/10/30 09:17:09;;;;;;;7.90;6.72;;;12.90;91.20;;;;;;4987641;28;20089;-63
2023/10/30 09:19:36;;;;;;;7.35;6.65;;;12.90;91.10;;;;;;4986866;28;20030;-63
2023/10/30 09:22:01;;;;;;;6.53;5.93;;;13.00;91.20;;;;;;4988035;28;20514;-63
2023/10/30 09:24:27;;;;;;;6.75;6.10;;;13.10;91.20;;;;;;4987606;28;20034;-62
2023/10/30 09:26:52;;;;;;;6.70;6.00;;;13.10;91.00;;;;;;4987446;28;20546;-62
2023/10/30 09:29:18;;;;;;;7.10;6.38;;;13.10;91.00;;;;;;4987851;28;20030;-61
2023/10/30 09:31:44;;;;;;;9.20;6.53;;;13.30;90.90;;;;;;4987848;28;20039;-63
2023/10/30 09:34:10;;;;;;;7.10;5.68;;;13.30;90.80;;;;;;4987466;28;20465;-62
2023/10/30 09:36:36;;;;;;;6.10;5.45;;;13.40;90.80;;;;;;4987063;28;20106;-64
2023/10/30 09:39:01;;;;;;;5.30;4.80;;;13.50;90.80;;;;;;4987535;28;20130;-63
2023/10/30 09:41:28;;;;;;;5.03;4.53;;;13.50;90.80;;;;;;4987660;28;20378;-63
2023/10/30 09:43:56;;;;;;;4.38;3.97;;;13.60;90.70;;;;;;4987196;28;20084;-63
2023/10/30 09:46:28;;;;;;;5.63;4.53;;;13.70;90.60;;;;;;4987695;28;20088;-63
2023/10/30 09:48:56;;;;;;;6.15;4.50;;;13.70;90.60;;;;;;4986729;28;20035;-63
2023/10/30 09:51:22;;;;;;;5.43;3.83;;;13.80;90.60;;;;;;4987456;28;20034;-63
2023/10/30 09:53:49;;;;;;;4.85;3.50;;;13.80;90.60;;;;;;4986040;28;20034;-63
2023/10/30 09:56:16;;;;;;;4.53;3.25;;;13.90;90.60;;;;;;4987516;28;20030;-63
2023/10/30 09:58:42;;;;;;;3.50;3.20;;;14.00;90.50;;;;;;4986271;28;20042;-64
2023/10/30 10:01:08;;;;;;;4.10;3.17;;;14.10;90.40;;;;;;4986068;28;20956;-63
2023/10/30 10:03:33;;;;;;;3.75;2.70;;;14.10;90.30;;;;;;4987398;28;20057;-63
2023/10/30 10:06:00;;;;;;;4.05;2.90;;;14.20;90.20;;;;;;4987555;28;20510;-63
2023/10/30 10:08:26;;;;;;;2.95;2.60;;;14.20;90.00;;;;;;4986492;28;20416;-64
2023/10/30 10:11:02;;;;;;;2.33;2.15;;;14.30;90.00;;;;;;4985496;28;20368;-63
2023/10/30 10:13:29;;;;;;;2.60;2.30;;;14.40;89.90;;;;;;4987271;28;20034;-63
2023/10/30 10:15:55;;;;;;;2.67;2.17;;;14.40;89.60;;;;;;4987498;28;20113;-63
2023/10/30 10:18:28;;;;;;;3.65;2.47;;;14.50;89.50;;;;;;4987734;28;20035;-63
2023/10/30 10:20:59;;;;;;;2.42;2.22;;;14.60;89.30;;;;;;4986440;28;20117;-63
2023/10/30 10:23:26;;;;;;;3.30;3.00;;;14.60;89.20;;;;;;4986508;28;20026;-63
2023/10/30 10:25:55;;;;;;;2.67;2.47;;;14.70;89.10;;;;;;4986598;28;20110;-63
2023/10/30 10:28:31;;;;;;;3.22;2.97;;;14.70;89.00;;;;;;4987500;28;20037;-63
2023/10/30 10:30:56;;;;;;;5.57;3.33;;;14.80;89.10;;;;;;4986217;28;20112;-63
2023/10/30 10:33:24;;;;;;;3.70;3.40;;;14.80;89.10;;;;;;4986207;28;20514;-63
2023/10/30 10:36:00;;;;;;;3.50;3.20;;;14.90;89.00;;;;;;4986744;28;20034;-64
2023/10/30 10:38:27;;;;;;;5.40;4.05;;;15.00;89.00;;;;;;4986975;28;20069;-63
2023/10/30 10:40:53;;;;;;;3.80;3.50;;;15.10;88.80;;;;;;4989564;28;20336;-63
2023/10/30 10:43:20;;;;;;;4.03;3.63;;;15.00;88.30;;;;;;4990799;28;20041;-62
2023/10/30 10:45:47;;;;;;;5.25;3.70;;;15.00;88.40;;;;;;4990710;28;20085;-63
2023/10/30 10:48:14;;;;;;;3.88;3.53;;;15.10;88.50;;;;;;4989609;28;20099;-63
2023/10/30 10:50:40;;;;;;;4.97;3.80;;;15.10;88.50;;;;;;4990599;28;20046;-64
2023/10/30 10:53:07;;;;;;;4.03;3.65;;;15.10;88.20;;;;;;4989888;28;20442;-63
2023/10/30 10:55:42;;;;;;;4.63;3.85;;;15.10;87.80;;;;;;4990230;28;20033;-63
2023/10/30 10:58:09;;;;;;;;;;;15.10;87.40;;;;;;4991088;28;20027;-64
2023/10/30 11:00:40;;;;;;;4.78;3.25;;;15.10;87.50;;;;;;4988616;28;20425;-63
2023/10/30 11:03:07;;;;;;;4.72;3.70;;;15.10;87.40;;;;;;4990002;28;20034;-64
2023/10/30 11:05:36;;;;;;;5.20;3.20;;;15.10;87.60;;;;;;4990550;28;20032;-63
2023/10/30 11:08:19;;;;;;;3.97;3.40;;;15.00;87.40;;;;;;4990406;28;20042;-64
2023/10/30 11:10:51;;;;;;;3.90;3.33;;;15.10;87.60;;;;;;4987883;28;20406;-64
2023/10/30 11:13:23;;;;;;;3.45;3.03;;;15.00;87.60;;;;;;4990140;28;20029;-64
2023/10/30 11:16:21;;;;;;;4.03;3.25;;;15.00;87.60;;;;;;4990494;28;20031;-64
2023/10/30 11:18:52;;;;;;;7.40;3.28;;;15.00;87.60;;;;;;4976086;28;20030;-63
2023/10/30 11:21:18;;;;;;;3.72;3.20;;;15.10;87.60;;;;;;4990199;28;20466;-64
2023/10/30 11:23:56;;;;;;;3.70;3.40;;;15.00;87.50;;;;;;4990282;28;20475;-62
2023/10/30 11:26:37;;;;;;;3.90;3.13;;;15.10;87.60;;;;;;4990268;28;20031;-63
2023/10/30 11:29:10;;;;;;;4.75;3.35;;;15.10;87.60;;;;;;4989765;28;20105;-62
2023/10/30 11:31:56;;;;;;;3.17;2.88;;;15.10;87.60;;;;;;4989599;28;20169;-63
2023/10/30 11:34:33;;;;;;;4.43;3.08;;;15.20;87.60;;;;;;4982666;28;20108;-64
2023/10/30 11:37:12;;;;;;;4.63;3.00;;;15.20;87.40;;;;;;4989317;28;20038;-63
2023/10/30 11:39:39;;;;;;;3.28;2.85;;;15.20;87.30;;;;;;4989324;28;20393;-63
2023/10/30 11:42:27;;;;;;;3.20;2.90;;;15.20;87.40;;;;;;4988785;28;20819;-63
2023/10/30 11:45:17;;;;;;;3.30;3.00;;;15.20;87.30;;;;;;4988656;28;20145;-63
2023/10/30 11:47:46;;;;;;;3.38;2.90;;;15.20;87.30;;;;;;4989311;28;20092;-64
2023/10/30 11:50:12;;;;;;;3.20;2.92;;;15.20;87.30;;;;;;4988862;28;20042;-63
2023/10/30 11:52:38;;;;;;;3.25;2.78;;;15.20;87.40;;;;;;4988588;28;20065;-63
2023/10/30 11:55:05;;;;;;;3.17;2.88;;;15.20;87.50;;;;;;4989176;28;20041;-64
2023/10/30 11:57:31;;;;;;;3.33;2.88;;;15.30;87.60;;;;;;4989320;28;20561;-64
2023/10/30 11:59:56;;;;;;;3.58;2.88;;;15.30;87.60;;;;;;4988493;28;20030;-62
2023/10/30 12:02:22;;;;;;;3.38;3.08;;;15.30;87.50;;;;;;4987842;28;20058;-64
2023/10/30 12:04:48;;;;;;;3.10;2.80;;;15.40;87.60;;;;;;4988818;28;20092;-64
2023/10/30 12:07:14;;;;;;;3.42;3.10;;;15.40;87.40;;;;;;4988457;28;20030;-63
2023/10/30 12:09:39;;;;;;;3.17;2.88;;;15.50;87.40;;;;;;4989295;28;20042;-64
2023/10/30 12:12:05;;;;;;;3.20;2.72;;;15.50;87.40;;;;;;4986893;28;20034;-63
2023/10/30 12:14:31;;;;;;;2.80;2.60;;;15.50;87.30;;;;;;4988668;28;20047;-63
2023/10/30 12:16:58;;;;;;;2.97;2.65;;;15.60;87.20;;;;;;4989034;28;20705;-61
2023/10/30 12:19:24;;;;;;;4.10;2.80;;;15.60;86.90;;;;;;4989180;28;20056;-63
2023/10/30 12:21:51;;;;;;;3.17;2.55;;;15.70;86.90;;;;;;4988379;28;20223;-64
2023/10/30 12:24:22;;;;;;;2.60;2.40;;;15.80;86.80;;;;;;4989051;28;20030;-64
2023/10/30 12:26:48;;;;;;;4.70;2.83;;;15.80;86.60;;;;;;4988774;28;20096;-63
2023/10/30 12:29:24;;;;;;;3.97;2.70;;;15.80;86.60;;;;;;4988973;28;20461;-63
2023/10/30 12:32:06;;;;;;;2.60;2.40;;;15.90;85.90;;;;;;4988450;28;20034;-64
2023/10/30 12:34:35;;;;;;;2.95;2.65;;;15.90;85.70;;;;;;4988113;28;20034;-63
2023/10/30 12:37:16;;;;;;;3.40;2.53;;;16.00;85.70;;;;;;4988472;28;20062;-63
2023/10/30 12:40:00;;;;;;;2.50;2.30;;;16.00;85.70;;;;;;4988504;28;20037;-63
2023/10/30 12:42:27;;;;;;;3.17;2.72;;;16.00;85.40;;;;;;4988070;28;20045;-63